createdAt,value
2018-03-18T00:02:19.435Z,10.15
2018-03-18T00:04:45.729Z,11.88
2018-03-18T00:07:11.969Z,10.57
2018-03-18T00:09:38.120Z,11.15
2018-03-18T00:12:04.277Z,10.95
2018-03-18T00:14:31.217Z,10.90
2018-03-18T00:16:57.333Z,11.80
2018-03-18T00:19:24.407Z,11.15
2018-03-18T00:21:50.524Z,10.23
2018-03-18T00:24:16.673Z,11.18
2018-03-18T00:26:42.831Z,12.50
2018-03-18T00:29:09.739Z,10.85
2018-03-18T00:31:36.072Z,10.88
2018-03-18T00:34:02.206Z,10.95
2018-03-18T00:36:28.362Z,11.45
2018-03-18T00:38:54.486Z,12.60
2018-03-18T00:41:21.343Z,10.32
2018-03-18T00:43:47.518Z,12.18
2018-03-18T00:46:13.655Z,12.68
2018-03-18T00:48:39.775Z,10.90
2018-03-18T00:51:05.900Z,11.10
2018-03-18T00:53:32.055Z,12.23
2018-03-18T00:55:58.205Z,12.23
2018-03-18T00:58:24.351Z,11.00
2018-03-18T01:00:50.461Z,11.45
2018-03-18T01:03:16.681Z,12.10
2018-03-18T01:05:43.546Z,13.00
2018-03-18T01:08:10.175Z,12.98
2018-03-18T01:10:36.536Z,11.88
2018-03-18T01:13:02.684Z,12.43
2018-03-18T01:15:28.870Z,13.30
2018-03-18T01:17:55.024Z,12.25
2018-03-18T01:20:21.180Z,11.60
2018-03-18T01:22:47.308Z,12.20
2018-03-18T01:25:14.187Z,13.38
2018-03-18T01:27:41.805Z,13.13
2018-03-18T01:30:07.979Z,12.93
2018-03-18T01:32:35.967Z,12.40
2018-03-18T01:35:02.327Z,12.30
2018-03-18T01:37:28.457Z,11.98
2018-03-18T01:39:55.357Z,12.65
2018-03-18T01:42:21.545Z,13.55
2018-03-18T01:44:47.696Z,11.32
2018-03-18T01:47:14.830Z,12.65
2018-03-18T01:49:46.452Z,13.23
2018-03-18T01:52:12.619Z,12.40
2018-03-18T01:54:38.893Z,12.95
2018-03-18T01:57:05.767Z,12.77
2018-03-18T01:59:31.931Z,13.00
2018-03-18T02:01:58.043Z,12.73
2018-03-18T02:04:24.899Z,12.10
2018-03-18T02:06:51.082Z,14.27
2018-03-18T02:09:17.329Z,14.05
2018-03-18T02:11:43.455Z,13.30
2018-03-18T02:14:09.634Z,12.20
2018-03-18T02:16:35.751Z,13.60
2018-03-18T02:19:01.907Z,11.90
2018-03-18T02:21:28.044Z,13.02
2018-03-18T02:23:54.155Z,13.48
2018-03-18T02:26:20.287Z,11.10
2018-03-18T02:28:46.515Z,12.60
2018-03-18T02:31:12.680Z,12.07
2018-03-18T02:33:38.846Z,12.35
2018-03-18T02:36:05.008Z,12.68
2018-03-18T02:38:31.917Z,11.85
2018-03-18T02:40:58.058Z,10.30
2018-03-18T02:43:24.252Z,14.45
2018-03-18T02:45:51.141Z,12.73
2018-03-18T02:48:17.301Z,13.60
2018-03-18T02:50:43.425Z,11.60
2018-03-18T02:53:09.551Z,12.05
2018-03-18T02:55:35.741Z,11.60
2018-03-18T02:58:02.648Z,12.68
2018-03-18T03:00:28.810Z,12.90
2018-03-18T03:02:54.982Z,10.85
2018-03-18T03:05:21.107Z,11.30
2018-03-18T03:07:47.295Z,12.55
2018-03-18T03:10:13.427Z,12.30
2018-03-18T03:12:39.661Z,11.85
2018-03-18T03:15:06.543Z,12.60
2018-03-18T03:17:32.661Z,10.73
2018-03-18T03:19:59.584Z,13.40
2018-03-18T03:22:25.812Z,12.37
2018-03-18T03:24:52.006Z,11.75
2018-03-18T03:27:18.149Z,12.23
2018-03-18T03:29:44.332Z,10.70
2018-03-18T03:32:10.482Z,13.45
2018-03-18T03:34:36.595Z,12.20
2018-03-18T03:37:02.708Z,12.37
2018-03-18T03:39:28.873Z,12.63
2018-03-18T03:41:55.122Z,12.02
2018-03-18T03:44:21.284Z,12.63
2018-03-18T03:46:47.456Z,11.25
2018-03-18T03:49:13.589Z,11.25
2018-03-18T03:51:40.457Z,11.50
2018-03-18T03:54:06.557Z,9.00
2018-03-18T03:56:32.685Z,10.77
2018-03-18T03:58:58.846Z,10.60
2018-03-18T04:01:25.799Z,12.13
2018-03-18T04:03:51.936Z,12.05
2018-03-18T04:06:18.084Z,11.05
2018-03-18T04:08:44.207Z,12.27
2018-03-18T04:11:10.352Z,12.10
2018-03-18T04:13:36.488Z,11.02
2018-03-18T04:16:02.656Z,11.48
2018-03-18T04:18:28.816Z,10.20
2018-03-18T04:20:54.963Z,11.40
2018-03-18T04:23:21.112Z,12.07
2018-03-18T04:25:47.227Z,12.30
2018-03-18T04:28:13.368Z,12.23
2018-03-18T04:30:39.502Z,11.23
2018-03-18T04:33:05.644Z,11.68
2018-03-18T04:35:31.735Z,10.65
2018-03-18T04:37:57.873Z,10.32
2018-03-18T04:40:24.046Z,11.15
2018-03-18T04:42:50.176Z,10.15
2018-03-18T04:45:16.334Z,9.30
2018-03-18T04:47:42.465Z,11.40
2018-03-18T04:50:08.599Z,11.73
2018-03-18T04:52:36.472Z,11.88
2018-03-18T04:55:03.393Z,12.23
2018-03-18T04:57:29.565Z,11.45
2018-03-18T04:59:55.705Z,10.32
2018-03-18T05:02:22.545Z,10.77
2018-03-18T05:04:48.664Z,9.00
2018-03-18T05:07:14.809Z,11.35
2018-03-18T05:09:40.967Z,11.02
2018-03-18T05:12:07.200Z,12.05
2018-03-18T05:14:33.308Z,11.32
2018-03-18T05:16:59.445Z,12.98
2018-03-18T05:19:25.553Z,12.18
2018-03-18T05:21:51.675Z,12.93
2018-03-18T05:24:18.570Z,12.95
2018-03-18T05:26:44.729Z,12.23
2018-03-18T05:29:10.901Z,13.75
2018-03-18T05:31:37.047Z,13.32
2018-03-18T05:34:03.992Z,15.70
2018-03-18T05:36:30.075Z,13.98
2018-03-18T05:38:56.225Z,14.15
2018-03-18T05:41:22.367Z,12.80
2018-03-18T05:43:48.488Z,13.25
2018-03-18T05:46:14.633Z,12.48
2018-03-18T05:48:40.748Z,13.07
2018-03-18T05:51:06.871Z,11.88
2018-03-18T05:53:33.799Z,11.80
2018-03-18T05:55:59.921Z,12.98
2018-03-18T05:58:26.032Z,11.93
2018-03-18T06:00:52.137Z,10.95
2018-03-18T06:03:19.015Z,12.10
2018-03-18T06:05:46.079Z,13.50
2018-03-18T06:08:12.911Z,11.88
2018-03-18T06:10:39.038Z,12.25
2018-03-18T06:13:05.171Z,11.50
2018-03-18T06:15:31.292Z,13.40
2018-03-18T06:17:57.436Z,12.55
2018-03-18T06:20:23.565Z,12.65
2018-03-18T06:22:49.727Z,11.80
2018-03-18T06:25:15.871Z,11.30
2018-03-18T06:27:41.988Z,13.55
2018-03-18T06:30:08.124Z,11.52
2018-03-18T06:32:34.246Z,13.98
2018-03-18T06:35:00.451Z,12.35
2018-03-18T06:37:27.339Z,11.32
2018-03-18T06:39:53.410Z,11.50
2018-03-18T06:42:19.541Z,12.60
2018-03-18T06:44:45.686Z,12.20
2018-03-18T06:47:11.884Z,12.10
2018-03-18T06:49:38.022Z,11.70
2018-03-18T06:52:04.142Z,12.55
2018-03-18T06:54:30.299Z,12.32
2018-03-18T06:56:56.418Z,11.45
2018-03-18T06:59:24.384Z,11.65
2018-03-18T07:01:51.397Z,12.35
2018-03-18T07:04:17.623Z,14.85
2018-03-18T07:06:43.818Z,13.27
2018-03-18T07:09:09.961Z,14.50
2018-03-18T07:11:36.874Z,12.93
2018-03-18T07:14:03.008Z,12.55
2018-03-18T07:16:29.147Z,12.88
2018-03-18T07:18:55.425Z,13.10
2018-03-18T07:21:27.528Z,12.50
2018-03-18T07:23:54.415Z,11.95
2018-03-18T07:26:20.574Z,11.12
2018-03-18T07:28:46.695Z,12.63
2018-03-18T07:31:12.885Z,11.75
2018-03-18T07:33:39.053Z,12.45
2018-03-18T07:36:05.619Z,11.93
2018-03-18T07:38:31.850Z,12.00
2018-03-18T07:40:58.118Z,13.27
2018-03-18T07:43:31.159Z,11.12
2018-03-18T07:45:59.361Z,12.32
2018-03-18T07:48:26.300Z,17.00
2018-03-18T07:50:58.971Z,10.80
2018-03-18T07:53:33.287Z,11.88
2018-03-18T07:56:00.254Z,11.70
2018-03-18T07:58:28.441Z,11.68
2018-03-18T08:00:54.945Z,13.73
2018-03-18T08:03:21.186Z,11.60
2018-03-18T08:05:47.421Z,11.93
2018-03-18T08:08:14.392Z,10.85
2018-03-18T08:10:40.569Z,9.73
2018-03-18T08:13:07.081Z,10.50
2018-03-18T08:15:33.835Z,10.90
2018-03-18T08:18:00.237Z,10.43
2018-03-18T08:20:26.857Z,11.10
2018-03-18T08:22:54.024Z,10.90
2018-03-18T08:25:20.221Z,10.55
2018-03-18T08:27:46.458Z,12.50
2018-03-18T08:30:12.712Z,11.63
2018-03-18T08:32:38.863Z,10.85
2018-03-18T08:35:05.119Z,11.63
2018-03-18T08:37:31.896Z,10.68
2018-03-18T08:40:02.317Z,10.77
2018-03-18T08:42:28.763Z,10.60
2018-03-18T08:44:54.920Z,12.30
2018-03-18T08:47:21.141Z,9.95
2018-03-18T08:49:47.365Z,11.15
2018-03-18T08:52:13.678Z,13.62
2018-03-18T08:54:40.329Z,11.57
2018-03-18T08:57:06.531Z,13.10
2018-03-18T08:59:32.697Z,10.10
2018-03-18T09:01:59.207Z,9.77
2018-03-18T09:04:25.348Z,10.07
2018-03-18T09:06:51.480Z,10.35
2018-03-18T09:09:17.923Z,10.10
2018-03-18T09:11:44.120Z,10.65
2018-03-18T09:14:10.384Z,9.93
2018-03-18T09:16:36.488Z,10.45
2018-03-18T09:19:02.664Z,10.07
2018-03-18T09:21:28.845Z,11.02
2018-03-18T09:23:55.062Z,10.20
2018-03-18T09:26:21.292Z,10.00
2018-03-18T09:28:48.402Z,10.88
2018-03-18T09:31:15.804Z,10.02
2018-03-18T09:33:42.224Z,10.73
2018-03-18T09:36:11.092Z,10.90
2018-03-18T09:38:37.325Z,11.20
2018-03-18T09:41:03.680Z,9.07
2018-03-18T09:43:29.911Z,9.97
2018-03-18T09:45:56.066Z,10.13
2018-03-18T09:48:22.423Z,10.65
2018-03-18T09:50:50.153Z,9.07
2018-03-18T09:53:16.422Z,9.33
2018-03-18T09:55:42.671Z,10.50
2018-03-18T09:58:08.791Z,9.90
2018-03-18T10:00:34.965Z,9.47
2018-03-18T10:03:01.130Z,9.38
2018-03-18T10:05:27.304Z,10.90
2018-03-18T10:07:53.489Z,10.05
2018-03-18T10:10:19.623Z,10.03
2018-03-18T10:12:45.727Z,8.93
2018-03-18T10:15:12.042Z,9.35
2018-03-18T10:17:38.201Z,9.50
2018-03-18T10:20:04.333Z,9.27
2018-03-18T10:22:30.451Z,8.37
2018-03-18T10:24:56.646Z,7.93
2018-03-18T10:27:22.745Z,10.23
2018-03-18T10:29:48.924Z,8.85
2018-03-18T10:32:15.291Z,9.40
2018-03-18T10:34:41.452Z,10.23
2018-03-18T10:37:07.613Z,10.27
2018-03-18T10:39:33.764Z,9.70
2018-03-18T10:41:59.992Z,10.90
2018-03-18T10:44:26.045Z,9.60
2018-03-18T10:46:52.168Z,9.55
2018-03-18T10:49:19.384Z,10.00
2018-03-18T10:51:45.574Z,9.63
2018-03-18T10:54:11.756Z,9.23
2018-03-18T10:56:49.799Z,9.23
2018-03-18T10:59:16.110Z,10.10
2018-03-18T11:01:48.150Z,8.63
2018-03-18T11:04:16.495Z,9.10
2018-03-18T11:06:43.510Z,9.10
2018-03-18T11:09:09.772Z,8.30
2018-03-18T11:11:35.918Z,9.57
2018-03-18T11:14:02.076Z,10.57
2018-03-18T11:16:28.208Z,9.37
2018-03-18T11:18:54.405Z,10.03
2018-03-18T11:21:20.558Z,8.47
2018-03-18T11:23:47.952Z,9.47
2018-03-18T11:26:14.535Z,8.70
2018-03-18T11:28:40.744Z,8.47
2018-03-18T11:31:09.352Z,9.48
2018-03-18T11:33:36.413Z,9.50
2018-03-18T11:36:02.641Z,8.50
2018-03-18T11:38:28.820Z,7.43
2018-03-18T11:40:54.957Z,7.80
2018-03-18T11:43:21.120Z,8.35
2018-03-18T11:45:47.329Z,8.83
2018-03-18T11:48:14.257Z,9.03
2018-03-18T11:50:41.186Z,8.90
2018-03-18T12:08:39.054Z,7.70
2018-03-18T12:11:06.190Z,7.80
2018-03-18T12:13:32.528Z,8.10
2018-03-18T12:16:00.031Z,8.75
2018-03-18T12:18:29.471Z,8.70
2018-03-18T12:20:55.752Z,7.57
2018-03-18T12:23:21.991Z,8.07
2018-03-18T12:25:48.334Z,7.57
2018-03-18T12:28:18.702Z,9.33
2018-03-18T12:30:46.342Z,8.47
2018-03-18T12:33:12.801Z,7.73
2018-03-18T12:35:39.043Z,6.97
2018-03-18T12:38:05.197Z,8.07
2018-03-18T12:40:32.273Z,6.50
2018-03-18T12:43:10.706Z,7.73
2018-03-18T12:45:36.874Z,7.30
2018-03-18T12:48:03.144Z,9.70
2018-03-18T12:50:29.321Z,7.40
2018-03-18T12:52:56.252Z,7.43
2018-03-18T12:55:22.549Z,7.57
2018-03-18T12:57:48.857Z,8.00
2018-03-18T13:00:15.012Z,8.20
2018-03-18T13:02:41.253Z,7.33
2018-03-18T13:05:07.541Z,7.93
2018-03-18T13:07:35.376Z,8.40
2018-03-18T13:10:01.591Z,7.13
2018-03-18T13:12:27.761Z,7.80
2018-03-18T13:14:54.400Z,8.37
2018-03-18T13:17:20.740Z,9.37
2018-03-18T13:19:47.092Z,8.80
2018-03-18T13:22:13.421Z,8.43
2018-03-18T13:24:39.724Z,7.80
2018-03-18T13:27:05.917Z,10.30
2018-03-18T13:29:32.730Z,7.60
2018-03-18T13:31:59.610Z,8.50
2018-03-18T13:34:25.812Z,8.67
2018-03-18T13:36:52.123Z,8.50
2018-03-18T13:39:20.056Z,8.02
2018-03-18T13:41:46.706Z,8.40
2018-03-18T13:44:12.940Z,8.53
2018-03-18T13:46:39.140Z,7.07
2018-03-18T13:49:06.839Z,8.80
2018-03-18T13:51:33.510Z,7.93
2018-03-18T13:53:59.826Z,8.00
2018-03-18T13:56:26.426Z,7.83
2018-03-18T13:58:52.751Z,7.50
2018-03-18T14:01:19.140Z,8.57
2018-03-18T14:03:47.389Z,7.00
2018-03-18T14:06:13.697Z,8.27
2018-03-18T14:08:40.086Z,7.63
2018-03-18T14:11:06.311Z,7.50
2018-03-18T14:13:32.683Z,7.70
2018-03-18T14:15:59.271Z,7.23
2018-03-18T14:18:26.245Z,7.63
2018-03-18T14:20:56.715Z,8.20
2018-03-18T14:23:23.422Z,7.30
2018-03-18T14:25:49.691Z,6.40
2018-03-18T14:28:16.044Z,6.70
2018-03-18T14:30:45.163Z,7.43
2018-03-18T14:33:11.355Z,7.10
2018-03-18T14:35:45.348Z,7.30
2018-03-18T14:40:50.478Z,7.13
2018-03-18T14:43:16.847Z,6.90
2018-03-18T14:45:43.278Z,8.00
2018-03-18T14:48:09.482Z,6.40
2018-03-18T14:50:35.970Z,7.20
2018-03-18T14:53:21.229Z,8.30
2018-03-18T14:55:47.743Z,7.93
2018-03-18T15:01:17.342Z,8.37
2018-03-18T15:03:43.570Z,6.87
2018-03-18T15:06:10.088Z,6.20
2018-03-18T15:08:38.528Z,7.90
2018-03-18T15:11:04.902Z,7.30
2018-03-18T15:13:31.071Z,5.47
2018-03-18T15:15:57.203Z,7.33
2018-03-18T15:18:23.391Z,6.90
2018-03-18T15:20:49.746Z,6.33
2018-03-18T15:26:23.088Z,6.30
2018-03-18T15:28:51.378Z,7.10
2018-03-18T15:31:20.956Z,7.67
2018-03-18T15:33:48.510Z,7.33
2018-03-18T15:36:14.715Z,6.10
2018-03-18T15:38:40.896Z,6.47
2018-03-18T15:41:07.008Z,6.67
2018-03-18T15:43:33.232Z,7.30
2018-03-18T15:45:59.564Z,7.07
2018-03-18T15:48:25.709Z,6.10
2018-03-18T15:50:55.539Z,5.90
2018-03-18T15:53:22.828Z,6.60
2018-03-18T15:55:50.190Z,6.03
2018-03-18T15:58:20.833Z,6.17
2018-03-18T16:00:46.992Z,6.20
2018-03-18T16:03:16.342Z,6.30
2018-03-18T16:05:43.051Z,5.50
2018-03-18T16:08:09.829Z,6.67
2018-03-18T16:10:41.786Z,6.20
2018-03-18T16:13:10.507Z,5.00
2018-03-18T16:15:37.221Z,6.20
2018-03-18T16:18:03.467Z,6.60
2018-03-18T16:20:30.001Z,14.07
2018-03-18T16:22:56.969Z,6.93
2018-03-18T16:25:23.072Z,6.60
2018-03-18T16:27:50.443Z,6.20
2018-03-18T16:30:30.578Z,5.83
2018-03-18T16:32:56.782Z,5.97
2018-03-18T16:35:23.996Z,6.00
2018-03-18T16:37:50.382Z,6.60
2018-03-18T16:40:16.576Z,6.67
2018-03-18T16:42:42.699Z,7.20
2018-03-18T16:45:09.662Z,6.17
2018-03-18T16:47:42.593Z,6.20
2018-03-18T16:50:09.319Z,6.00
2018-03-18T16:52:35.600Z,7.40
2018-03-18T16:55:03.701Z,6.23
2018-03-18T16:57:29.938Z,6.33
2018-03-18T16:59:56.876Z,5.83
2018-03-18T17:02:24.239Z,5.50
2018-03-18T17:04:51.889Z,6.13
2018-03-18T17:19:33.463Z,6.65
2018-03-18T17:40:50.825Z,6.62
2018-03-18T17:43:17.256Z,6.07
2018-03-18T18:01:20.421Z,4.93
2018-03-18T18:03:46.640Z,4.20
2018-03-18T18:06:13.124Z,4.28
2018-03-18T18:08:39.292Z,4.40
2018-03-18T18:11:06.674Z,3.92
2018-03-18T18:16:42.571Z,4.37
2018-03-18T18:19:08.845Z,5.20
2018-03-18T18:21:34.987Z,4.65
2018-03-18T18:24:01.443Z,4.55
2018-03-18T18:26:27.577Z,4.30
2018-03-18T18:28:53.719Z,5.47
2018-03-18T18:31:19.919Z,5.20
2018-03-18T18:33:46.875Z,6.10
2018-03-18T18:36:13.072Z,7.57
2018-03-18T18:38:39.500Z,7.65
2018-03-18T18:41:05.695Z,8.23
2018-03-18T18:43:31.827Z,6.28
2018-03-18T18:45:59.168Z,8.30
2018-03-18T18:48:26.434Z,4.80
2018-03-18T18:50:52.732Z,5.35
2018-03-18T18:53:18.931Z,3.47
2018-03-18T18:55:45.228Z,5.30
2018-03-18T18:58:11.492Z,5.22
2018-03-18T19:00:37.650Z,4.32
2018-03-18T19:03:03.932Z,4.18
2018-03-18T19:05:30.202Z,5.53
2018-03-18T19:07:57.508Z,4.78
2018-03-18T19:10:26.132Z,4.40
2018-03-18T19:12:55.302Z,5.15
2018-03-18T19:15:21.817Z,4.20
2018-03-18T19:17:48.700Z,4.45
2018-03-18T19:32:25.298Z,4.05
2018-03-18T19:34:51.556Z,5.20
2018-03-18T19:37:19.180Z,4.80
2018-03-18T19:39:45.318Z,4.70
2018-03-18T19:42:11.435Z,4.22
2018-03-18T19:44:37.575Z,4.90
2018-03-18T19:47:04.566Z,4.80
2018-03-18T19:49:32.029Z,5.15
2018-03-18T19:51:58.205Z,4.32
2018-03-18T19:54:24.444Z,4.50
2018-03-18T19:56:50.621Z,4.50
2018-03-18T19:59:16.882Z,4.60
2018-03-18T20:01:43.207Z,5.20
2018-03-18T20:04:09.932Z,4.55
2018-03-18T20:06:41.242Z,3.75
2018-03-18T20:09:07.732Z,4.68
2018-03-18T20:11:34.054Z,4.78
2018-03-18T20:14:00.450Z,5.25
2018-03-18T20:16:27.162Z,3.45
2018-03-18T20:18:53.443Z,4.55
2018-03-18T20:21:19.612Z,3.65
2018-03-18T20:23:45.752Z,5.47
2018-03-18T20:26:12.047Z,5.20
2018-03-18T20:28:38.224Z,4.70
2018-03-18T20:31:05.115Z,4.40
2018-03-18T20:33:31.273Z,3.90
2018-03-18T20:35:57.412Z,4.05
2018-03-18T20:38:23.508Z,4.72
2018-03-18T20:40:49.687Z,4.62
2018-03-18T20:43:15.831Z,5.32
2018-03-18T20:45:42.816Z,3.70
2018-03-18T20:48:09.619Z,4.62
2018-03-18T20:50:39.366Z,4.95
2018-03-18T20:55:45.268Z,5.15
2018-03-18T20:58:24.592Z,4.47
2018-03-18T21:31:19.288Z,3.78
2018-03-18T21:33:45.533Z,4.50
2018-03-18T21:36:11.733Z,4.30
2018-03-18T21:38:38.370Z,3.95
2018-03-18T21:41:04.877Z,5.57
2018-03-18T21:43:31.315Z,4.70
2018-03-18T21:45:57.575Z,4.15
2018-03-18T21:48:23.728Z,4.30
2018-03-18T21:50:50.024Z,4.22
2018-03-18T21:53:16.965Z,4.10
2018-03-18T21:55:43.341Z,4.87
2018-03-18T21:58:09.529Z,4.43
2018-03-18T22:00:36.834Z,4.05
2018-03-18T22:03:02.981Z,4.28
2018-03-18T22:05:29.160Z,4.37
2018-03-18T22:07:55.324Z,4.62
2018-03-18T22:10:22.187Z,4.12
2018-03-18T22:12:49.041Z,4.32
2018-03-18T22:15:16.053Z,4.57
2018-03-18T22:17:42.365Z,4.50
2018-03-18T22:20:08.922Z,3.75
2018-03-18T22:22:35.130Z,4.60
2018-03-18T22:25:03.120Z,4.50
2018-03-18T22:27:29.974Z,5.37
2018-03-18T22:30:07.257Z,4.20
2018-03-18T22:32:33.481Z,5.15
2018-03-18T22:35:00.600Z,4.97
2018-03-18T22:37:27.063Z,4.97
2018-03-18T22:39:54.835Z,5.15
2018-03-18T22:42:21.064Z,4.82
2018-03-18T22:44:47.286Z,4.40
2018-03-18T22:47:14.174Z,5.05
2018-03-18T22:49:41.918Z,5.62
2018-03-18T22:52:08.174Z,4.87
2018-03-18T22:54:34.374Z,5.05
2018-03-18T22:57:00.541Z,4.75
2018-03-18T22:59:27.395Z,4.37
2018-03-18T23:01:54.237Z,4.85
2018-03-18T23:04:21.918Z,5.10
2018-03-18T23:06:48.123Z,5.28
2018-03-18T23:09:14.280Z,4.35
2018-03-18T23:11:40.447Z,5.85
2018-03-18T23:14:07.018Z,4.32
2018-03-18T23:16:33.200Z,4.35
2018-03-18T23:18:59.316Z,4.37
2018-03-18T23:21:25.927Z,4.97
2018-03-18T23:23:52.092Z,4.45
2018-03-18T23:26:18.212Z,5.15
2018-03-18T23:28:45.085Z,7.87
2018-03-18T23:31:11.206Z,4.85
2018-03-18T23:33:37.344Z,4.93
2018-03-18T23:36:03.485Z,4.95
2018-03-18T23:38:30.412Z,5.57
2018-03-18T23:40:56.600Z,5.15
2018-03-18T23:43:23.351Z,4.75
2018-03-18T23:45:49.651Z,4.80
2018-03-18T23:48:15.928Z,5.47
2018-03-18T23:50:47.895Z,5.25
2018-03-18T23:53:14.753Z,4.72
2018-03-18T23:55:41.617Z,5.60
2018-03-18T23:58:09.559Z,5.55
